createdAt,value
2023-03-17T00:01:55.915Z,99538.75
2023-03-17T00:04:24.708Z,99520.84
2023-03-17T00:06:52.766Z,99530.09
2023-03-17T00:09:22.320Z,99526.78
2023-03-17T00:11:50.374Z,99527.87
2023-03-17T00:14:21.577Z,99533.34
2023-03-17T00:16:50.235Z,99530.78
2023-03-17T00:19:21.723Z,99523.72
2023-03-17T00:21:49.494Z,99522.22
2023-03-17T00:24:17.408Z,99524.97
2023-03-17T00:26:44.805Z,99521.56
2023-03-17T00:29:13.396Z,99525.03
2023-03-17T00:31:40.666Z,99525.16
2023-03-17T00:34:12.232Z,99519.44
2023-03-17T00:36:40.645Z,99522.25
2023-03-17T00:39:17.476Z,99516.97
2023-03-17T00:41:44.650Z,99518.19
2023-03-17T00:44:12.264Z,99515.94
2023-03-17T00:46:41.897Z,99514.06
2023-03-17T00:49:20.237Z,99506.94
2023-03-17T00:51:48.279Z,99500.91
2023-03-17T00:54:16.456Z,99495.50
2023-03-17T00:56:44.331Z,99500.22
2023-03-17T00:59:22.142Z,99496.84
2023-03-17T01:01:49.322Z,99507.28
2023-03-17T01:04:17.064Z,99504.28
2023-03-17T01:06:44.260Z,99508.66
2023-03-17T01:09:15.002Z,99503.84
2023-03-17T01:11:42.874Z,99504.75
2023-03-17T01:14:12.072Z,99497.59
2023-03-17T01:16:39.684Z,99510.31
2023-03-17T01:19:07.098Z,99507.09
2023-03-17T01:21:34.787Z,99505.50
2023-03-17T01:24:02.784Z,99509.38
2023-03-17T01:26:30.308Z,99504.34
2023-03-17T01:28:57.513Z,99516.88
2023-03-17T01:31:26.287Z,99509.34
2023-03-17T01:33:54.036Z,99508.00
2023-03-17T01:36:22.172Z,99503.63
2023-03-17T01:38:50.900Z,99500.16
2023-03-17T01:41:19.088Z,99506.84
2023-03-17T01:43:46.462Z,99500.38
2023-03-17T01:46:29.331Z,99507.66
2023-03-17T01:49:09.413Z,99505.37
2023-03-17T01:51:47.591Z,99505.75
2023-03-17T01:54:27.131Z,99508.28
2023-03-17T01:56:57.466Z,99506.63
2023-03-17T01:59:29.132Z,99496.16
2023-03-17T02:02:02.329Z,99486.44
2023-03-17T02:04:29.918Z,99490.53
2023-03-17T02:06:58.923Z,99484.16
2023-03-17T02:09:27.318Z,99498.53
2023-03-17T02:11:56.575Z,99506.31
2023-03-17T02:14:23.769Z,99510.47
2023-03-17T02:16:51.360Z,99523.47
2023-03-17T02:19:18.595Z,99520.69
2023-03-17T02:21:57.320Z,99528.19
2023-03-17T02:24:35.392Z,99531.78
2023-03-17T02:27:09.058Z,99535.63
2023-03-17T02:29:37.819Z,99539.81
2023-03-17T02:32:06.483Z,99535.47
2023-03-17T02:34:34.848Z,99536.41
2023-03-17T02:37:05.947Z,99542.28
2023-03-17T02:39:33.089Z,99547.50
2023-03-17T02:42:00.223Z,99546.72
2023-03-17T02:44:27.772Z,99541.66
2023-03-17T02:46:54.952Z,99539.97
2023-03-17T02:49:22.844Z,99537.34
2023-03-17T02:51:50.730Z,99532.47
2023-03-17T02:54:17.919Z,99525.69
2023-03-17T02:56:45.877Z,99531.69
2023-03-17T02:59:13.250Z,99534.81
2023-03-17T03:01:40.492Z,99534.31
2023-03-17T03:04:10.771Z,99532.81
2023-03-17T03:06:39.834Z,99535.37
2023-03-17T03:09:06.955Z,99533.91
2023-03-17T03:11:34.085Z,99537.25
2023-03-17T03:14:01.487Z,99535.75
2023-03-17T03:16:28.544Z,99538.38
2023-03-17T03:18:56.861Z,99538.53
2023-03-17T03:21:24.365Z,99530.81
2023-03-17T03:23:51.546Z,99521.44
2023-03-17T03:26:19.192Z,99521.91
2023-03-17T03:28:46.877Z,99528.37
2023-03-17T03:31:14.161Z,99526.63
2023-03-17T03:33:41.939Z,99530.03
2023-03-17T03:36:09.903Z,99521.75
2023-03-17T03:38:37.183Z,99525.56
2023-03-17T03:41:04.420Z,99521.66
2023-03-17T03:43:31.846Z,99520.28
2023-03-17T03:46:00.222Z,99526.38
2023-03-17T03:48:28.360Z,99527.59
2023-03-17T03:50:57.792Z,99522.56
2023-03-17T03:53:25.266Z,99523.53
2023-03-17T03:55:52.664Z,99513.19
2023-03-17T03:58:20.232Z,99511.47
2023-03-17T04:00:47.750Z,99518.91
2023-03-17T04:03:16.026Z,99519.72
2023-03-17T04:05:43.358Z,99515.53
2023-03-17T04:08:11.346Z,99511.38
2023-03-17T04:10:38.737Z,99510.97
2023-03-17T04:13:06.613Z,99513.31
2023-03-17T04:15:33.791Z,99510.47
2023-03-17T04:18:01.189Z,99507.47
2023-03-17T04:20:28.963Z,99510.16
2023-03-17T04:22:56.324Z,99505.16
2023-03-17T04:25:23.763Z,99514.59
2023-03-17T04:27:51.014Z,99513.84
2023-03-17T04:30:18.380Z,99510.28
2023-03-17T04:32:46.460Z,99518.06
2023-03-17T04:35:16.125Z,99507.00
2023-03-17T04:37:43.812Z,99508.84
2023-03-17T04:40:13.360Z,99521.47
2023-03-17T04:42:40.715Z,99525.03
2023-03-17T04:45:11.235Z,99517.44
2023-03-17T04:47:39.433Z,99513.94
2023-03-17T04:50:08.921Z,99519.09
2023-03-17T04:52:36.920Z,99519.94
2023-03-17T04:55:05.798Z,99528.53
2023-03-17T04:57:33.189Z,99526.78
2023-03-17T05:00:00.307Z,99531.91
2023-03-17T05:02:28.260Z,99531.44
2023-03-17T05:04:55.521Z,99533.38
2023-03-17T05:07:22.627Z,99529.78
2023-03-17T05:09:50.224Z,99533.97
2023-03-17T05:12:17.297Z,99536.34
2023-03-17T05:14:44.403Z,99541.34
2023-03-17T05:17:11.948Z,99538.56
2023-03-17T05:19:39.036Z,99539.00
2023-03-17T05:22:06.274Z,99535.34
2023-03-17T05:24:33.855Z,99546.00
2023-03-17T05:27:01.750Z,99543.19
2023-03-17T05:29:29.897Z,99538.63
2023-03-17T05:31:57.420Z,99534.84
2023-03-17T05:34:24.607Z,99542.09
2023-03-17T05:36:51.794Z,99547.03
2023-03-17T05:39:19.168Z,99543.31
2023-03-17T05:41:47.202Z,99543.75
2023-03-17T05:44:14.655Z,99550.72
2023-03-17T05:46:42.219Z,99549.25
2023-03-17T05:49:10.126Z,99536.09
2023-03-17T05:51:37.442Z,99528.66
2023-03-17T05:54:05.144Z,99526.25
2023-03-17T05:56:33.844Z,99530.91
2023-03-17T05:59:01.933Z,99533.53
2023-03-17T06:01:30.121Z,99538.81
2023-03-17T06:03:57.622Z,99532.50
2023-03-17T06:06:25.807Z,99539.53
2023-03-17T06:08:53.000Z,99536.44
2023-03-17T06:11:21.574Z,99531.56
2023-03-17T06:13:48.837Z,99539.06
2023-03-17T06:16:17.651Z,99539.28
2023-03-17T06:18:46.135Z,99542.00
2023-03-17T06:21:13.806Z,99543.56
2023-03-17T06:23:40.984Z,99545.03
2023-03-17T06:26:08.486Z,99542.84
2023-03-17T06:28:35.768Z,99550.13
2023-03-17T06:31:05.252Z,99554.72
2023-03-17T06:33:34.589Z,99557.88
2023-03-17T06:36:01.862Z,99549.88
2023-03-17T06:38:29.019Z,99562.41
2023-03-17T06:40:56.359Z,99566.03
2023-03-17T06:43:25.082Z,99565.19
2023-03-17T06:45:52.755Z,99566.87
2023-03-17T06:48:20.173Z,99573.81
2023-03-17T06:50:50.499Z,99567.47
2023-03-17T06:53:17.635Z,99572.28
2023-03-17T06:55:45.097Z,99576.78
2023-03-17T06:58:13.212Z,99575.66
2023-03-17T07:00:40.671Z,99576.25
2023-03-17T07:03:09.905Z,99579.69
2023-03-17T07:05:40.055Z,99582.44
2023-03-17T07:08:07.902Z,99583.19
2023-03-17T07:10:36.703Z,99580.44
2023-03-17T07:13:06.044Z,99589.69
2023-03-17T07:15:35.846Z,99596.94
2023-03-17T07:18:04.073Z,99597.84
2023-03-17T07:20:31.749Z,99591.16
2023-03-17T07:22:59.367Z,99598.84
2023-03-17T07:25:26.724Z,99587.59
2023-03-17T07:27:53.807Z,99598.69
2023-03-17T07:30:21.739Z,99605.47
2023-03-17T07:32:49.100Z,99605.03
2023-03-17T07:35:16.598Z,99603.50
2023-03-17T07:37:44.613Z,99605.59
2023-03-17T07:40:12.245Z,99601.62
2023-03-17T07:42:39.377Z,99619.91
2023-03-17T07:45:07.946Z,99609.91
2023-03-17T07:47:35.263Z,99606.91
2023-03-17T07:50:02.608Z,99615.47
2023-03-17T07:52:30.410Z,99621.06
2023-03-17T07:54:58.420Z,99610.09
2023-03-17T07:57:25.527Z,99617.22
2023-03-17T07:59:53.004Z,99620.19
2023-03-17T08:02:21.145Z,99614.03
2023-03-17T08:04:48.826Z,99622.59
2023-03-17T08:07:15.897Z,99613.59
2023-03-17T08:09:43.077Z,99605.16
2023-03-17T08:12:10.809Z,99611.25
2023-03-17T08:14:37.797Z,99607.38
2023-03-17T08:17:05.239Z,99607.00
2023-03-17T08:19:32.679Z,99598.91
2023-03-17T08:21:59.926Z,99602.31
2023-03-17T08:24:27.115Z,99602.16
2023-03-17T08:26:54.542Z,99605.66
2023-03-17T08:29:21.694Z,99608.88
2023-03-17T08:31:48.740Z,99604.53
2023-03-17T08:34:16.562Z,99596.66
2023-03-17T08:36:43.659Z,99594.72
2023-03-17T08:39:11.322Z,99599.25
2023-03-17T08:41:38.898Z,99617.81
2023-03-17T08:44:05.966Z,99598.22
2023-03-17T08:46:33.144Z,99601.78
2023-03-17T08:49:01.930Z,99606.69
2023-03-17T08:51:36.013Z,99605.22
2023-03-17T08:54:04.059Z,99594.44
2023-03-17T08:56:31.100Z,99597.50
2023-03-17T08:58:58.537Z,99597.41
2023-03-17T09:01:27.392Z,99598.41
2023-03-17T09:03:55.120Z,99603.97
2023-03-17T09:06:22.707Z,99606.31
2023-03-17T09:08:55.259Z,99602.28
2023-03-17T09:11:25.431Z,99604.84
2023-03-17T09:13:53.459Z,99603.16
2023-03-17T09:16:20.588Z,99605.37
2023-03-17T09:18:47.633Z,99594.25
2023-03-17T09:21:15.985Z,99598.59
2023-03-17T09:23:43.486Z,99589.28
2023-03-17T09:26:12.570Z,99584.84
2023-03-17T09:28:39.956Z,99585.84
2023-03-17T09:31:11.612Z,99579.59
2023-03-17T09:33:40.693Z,99580.41
2023-03-17T09:36:09.758Z,99583.44
2023-03-17T09:38:37.513Z,99585.59
2023-03-17T09:41:12.166Z,99585.28
2023-03-17T09:43:45.756Z,99580.84
2023-03-17T09:46:31.663Z,99589.94
2023-03-17T09:49:07.362Z,99585.53
2023-03-17T09:51:35.782Z,99587.13
2023-03-17T09:54:18.921Z,99570.72
2023-03-17T09:56:53.255Z,99571.69
2023-03-17T09:59:28.172Z,99579.44
2023-03-17T10:01:56.060Z,99571.25
2023-03-17T10:04:24.367Z,99566.72
2023-03-17T10:06:53.036Z,99571.00
2023-03-17T10:09:42.150Z,99570.62
2023-03-17T10:12:15.407Z,99568.31
2023-03-17T10:14:56.500Z,99569.16
2023-03-17T10:17:30.041Z,99576.63
2023-03-17T10:19:57.105Z,99569.25
2023-03-17T10:22:58.204Z,99554.13
2023-03-17T10:25:29.433Z,99563.97
2023-03-17T10:28:03.612Z,99554.41
2023-03-17T10:30:35.745Z,99542.94
2023-03-17T10:33:07.124Z,99552.41
2023-03-17T10:35:36.645Z,99541.41
2023-03-17T10:38:24.181Z,99531.75
2023-03-17T10:41:00.045Z,99526.94
2023-03-17T10:43:36.368Z,99533.47
2023-03-17T10:46:06.406Z,99522.72
2023-03-17T10:48:38.565Z,99532.62
2023-03-17T10:51:08.007Z,99531.91
2023-03-17T10:53:43.328Z,99536.63
2023-03-17T10:56:21.549Z,99535.75
2023-03-17T10:58:51.505Z,99532.16
2023-03-17T11:01:22.785Z,99529.13
2023-03-17T11:03:50.952Z,99529.13
2023-03-17T11:06:20.869Z,99508.91
2023-03-17T11:08:50.886Z,99515.69
2023-03-17T11:11:33.184Z,99499.13
2023-03-17T11:14:11.637Z,99500.09
2023-03-17T11:16:48.748Z,99491.28
2023-03-17T11:19:17.337Z,99496.50
2023-03-17T11:22:00.078Z,99496.53
2023-03-17T11:24:33.620Z,99497.22
2023-03-17T11:27:44.650Z,99491.28
2023-03-17T11:30:20.070Z,99486.03
2023-03-17T11:33:16.871Z,99477.78
2023-03-17T11:35:54.676Z,99482.44
2023-03-17T11:38:48.436Z,99480.03
2023-03-17T11:41:15.683Z,99477.94
2023-03-17T11:44:05.815Z,99473.41
2023-03-17T11:46:56.006Z,99463.19
2023-03-17T11:49:37.309Z,99461.50
2023-03-17T11:52:07.372Z,99454.84
2023-03-17T11:54:54.367Z,99442.81
2023-03-17T11:57:27.414Z,99447.31
2023-03-17T11:59:58.883Z,99447.34
2023-03-17T12:02:58.908Z,99438.41
2023-03-17T12:05:28.252Z,99428.41
2023-03-17T12:08:07.667Z,99422.56
2023-03-17T12:10:56.506Z,99421.22
2023-03-17T12:13:45.535Z,99412.56
2023-03-17T12:16:17.584Z,99409.69
2023-03-17T12:19:12.390Z,99419.09
2023-03-17T12:21:59.328Z,99417.91
2023-03-17T12:24:34.804Z,99411.94
2023-03-17T12:27:11.661Z,99411.34
2023-03-17T12:29:52.553Z,99406.25
2023-03-17T12:32:24.307Z,99400.03
2023-03-17T12:34:59.727Z,99393.22
2023-03-17T12:37:30.086Z,99389.28
2023-03-17T12:40:16.658Z,99398.34
2023-03-17T12:42:53.780Z,99390.41
2023-03-17T12:45:47.388Z,99388.16
2023-03-17T12:48:33.662Z,99395.78
2023-03-17T12:51:32.228Z,99386.53
2023-03-17T12:54:00.284Z,99379.88
2023-03-17T12:56:34.433Z,99369.03
2023-03-17T12:59:09.714Z,99366.97
2023-03-17T13:01:44.638Z,99379.25
2023-03-17T13:04:15.349Z,99383.41
2023-03-17T13:06:45.847Z,99372.50
2023-03-17T13:09:32.075Z,99377.41
2023-03-17T13:12:00.608Z,99359.03
2023-03-17T13:14:48.270Z,99361.47
2023-03-17T13:17:24.581Z,99371.19
2023-03-17T13:20:12.556Z,99370.97
2023-03-17T13:22:44.330Z,99372.09
2023-03-17T13:25:35.860Z,99363.06
2023-03-17T13:28:12.015Z,99357.84
2023-03-17T13:30:39.442Z,99345.75
2023-03-17T13:33:12.276Z,99347.78
2023-03-17T13:36:00.718Z,99348.91
2023-03-17T13:39:04.928Z,99354.00
2023-03-17T13:41:52.675Z,99346.97
2023-03-17T13:44:19.689Z,99360.53
2023-03-17T13:46:48.327Z,99360.03
2023-03-17T13:49:18.698Z,99353.97
2023-03-17T13:51:59.981Z,99354.13
2023-03-17T13:54:30.599Z,99351.09
2023-03-17T13:57:23.332Z,99348.31
2023-03-17T13:59:51.171Z,99338.59
2023-03-17T14:02:20.703Z,99335.34
2023-03-17T14:04:58.168Z,99334.44
2023-03-17T14:07:29.423Z,99335.84
2023-03-17T14:10:00.548Z,99328.22
2023-03-17T14:12:42.462Z,99325.47
2023-03-17T14:15:28.085Z,99317.50
2023-03-17T14:18:12.600Z,99312.75
2023-03-17T14:20:40.768Z,99309.56
2023-03-17T14:23:09.332Z,99309.81
2023-03-17T14:25:38.397Z,99309.31
2023-03-17T14:28:10.996Z,99301.81
2023-03-17T14:30:38.897Z,99299.19
2023-03-17T14:33:12.313Z,99303.41
2023-03-17T14:35:44.705Z,99301.81
2023-03-17T14:38:23.996Z,99291.38
2023-03-17T14:41:18.803Z,99290.56
2023-03-17T14:43:46.566Z,99284.34
2023-03-17T14:46:22.199Z,99284.72
2023-03-17T14:49:05.179Z,99283.22
2023-03-17T14:51:39.182Z,99274.56
2023-03-17T14:54:18.967Z,99260.50
2023-03-17T14:56:52.220Z,99258.84
2023-03-17T14:59:27.154Z,99262.91
2023-03-17T15:01:56.450Z,99259.06
2023-03-17T15:04:25.685Z,99258.53
2023-03-17T15:06:53.974Z,99258.28
2023-03-17T15:09:34.627Z,99256.63
2023-03-17T15:12:18.563Z,99253.09
2023-03-17T15:14:46.436Z,99257.97
2023-03-17T15:17:19.481Z,99249.53
2023-03-17T15:19:49.472Z,99248.59
2023-03-17T15:22:26.280Z,99245.69
2023-03-17T15:25:02.540Z,99234.31
2023-03-17T15:27:31.151Z,99231.63
2023-03-17T15:29:58.604Z,99226.16
2023-03-17T15:32:26.935Z,99228.56
2023-03-17T15:34:57.065Z,99225.72
2023-03-17T15:37:29.345Z,99221.25
2023-03-17T15:39:57.059Z,99219.72
2023-03-17T15:42:30.667Z,99225.09
2023-03-17T15:45:00.288Z,99221.16
2023-03-17T15:47:29.196Z,99220.28
2023-03-17T15:50:14.804Z,99213.78
2023-03-17T15:52:42.772Z,99205.09
2023-03-17T15:55:21.506Z,99206.03
2023-03-17T15:57:55.038Z,99214.38
2023-03-17T16:00:24.557Z,99218.06
2023-03-17T16:02:57.165Z,99208.06
2023-03-17T16:05:27.023Z,99218.31
2023-03-17T16:07:54.824Z,99220.38
2023-03-17T16:10:27.816Z,99221.94
2023-03-17T16:12:55.656Z,99218.47
2023-03-17T16:15:31.589Z,99218.63
2023-03-17T16:18:02.520Z,99226.69
2023-03-17T16:20:38.875Z,99229.78
2023-03-17T16:23:11.760Z,99222.69
2023-03-17T16:25:38.903Z,99217.69
2023-03-17T16:28:20.342Z,99217.47
2023-03-17T16:30:48.902Z,99213.53
2023-03-17T16:33:27.558Z,99216.34
2023-03-17T16:35:55.910Z,99232.25
2023-03-17T16:38:25.064Z,99231.13
2023-03-17T16:40:53.907Z,99221.22
2023-03-17T16:43:33.589Z,99229.16
2023-03-17T16:46:03.021Z,99230.38
2023-03-17T16:48:31.260Z,99224.22
2023-03-17T16:50:58.826Z,99230.13
2023-03-17T16:53:26.325Z,99227.38
2023-03-17T16:55:54.395Z,99223.50
2023-03-17T16:58:26.622Z,99223.81
2023-03-17T17:00:59.676Z,99225.97
2023-03-17T17:03:27.828Z,99229.88
2023-03-17T17:05:55.820Z,99234.28
2023-03-17T17:08:23.163Z,99231.31
2023-03-17T17:10:50.342Z,99227.06
2023-03-17T17:13:17.742Z,99225.28
2023-03-17T17:15:44.824Z,99226.59
2023-03-17T17:18:17.374Z,99230.53
2023-03-17T17:20:45.936Z,99228.28
2023-03-17T17:23:16.144Z,99226.81
2023-03-17T17:25:43.755Z,99224.31
2023-03-17T17:28:12.468Z,99219.75
2023-03-17T17:30:42.985Z,99215.13
2023-03-17T17:33:10.909Z,99222.19
2023-03-17T17:35:38.587Z,99218.88
2023-03-17T17:38:11.137Z,99224.63
2023-03-17T17:40:38.503Z,99221.84
2023-03-17T17:43:05.691Z,99212.75
2023-03-17T17:45:32.963Z,99215.16
2023-03-17T17:48:00.389Z,99218.53
2023-03-17T17:50:28.860Z,99222.69
2023-03-17T17:53:02.653Z,99217.41
2023-03-17T17:55:29.982Z,99219.34
2023-03-17T17:57:56.981Z,99219.44
2023-03-17T18:00:25.707Z,99219.44
2023-03-17T18:02:53.016Z,99218.41
2023-03-17T18:05:20.340Z,99221.69
2023-03-17T18:07:47.456Z,99209.41
2023-03-17T18:10:19.105Z,99219.69
2023-03-17T18:12:46.338Z,99218.78
2023-03-17T18:15:13.529Z,99218.03
2023-03-17T18:17:43.054Z,99216.37
2023-03-17T18:20:12.608Z,99217.75
2023-03-17T18:22:39.922Z,99227.22
2023-03-17T18:25:09.848Z,99223.87
2023-03-17T18:27:38.122Z,99209.59
2023-03-17T18:30:07.416Z,99220.62
2023-03-17T18:32:35.181Z,99216.25
2023-03-17T18:35:06.607Z,99224.59
2023-03-17T18:37:33.905Z,99215.69
2023-03-17T18:40:13.304Z,99220.78
2023-03-17T18:42:42.422Z,99224.31
2023-03-17T18:45:11.646Z,99226.63
2023-03-17T18:47:39.140Z,99221.84
2023-03-17T18:50:08.084Z,99224.44
2023-03-17T18:52:37.393Z,99221.91
2023-03-17T18:55:05.293Z,99227.38
2023-03-17T18:57:32.539Z,99226.81
2023-03-17T19:00:00.041Z,99224.22
2023-03-17T19:02:27.123Z,99222.09
2023-03-17T19:04:54.478Z,99223.13
2023-03-17T19:07:22.839Z,99217.69
2023-03-17T19:09:49.946Z,99216.31
2023-03-17T19:12:17.073Z,99212.78
2023-03-17T19:14:44.642Z,99210.47
2023-03-17T19:17:11.746Z,99218.78
2023-03-17T19:19:39.127Z,99220.28
2023-03-17T19:22:06.521Z,99213.50
2023-03-17T19:24:36.069Z,99214.69
2023-03-17T19:27:03.908Z,99216.34
2023-03-17T19:29:32.506Z,99208.13
2023-03-17T19:31:59.675Z,99207.03
2023-03-17T19:34:27.357Z,99212.16
2023-03-17T19:36:54.787Z,99202.19
2023-03-17T19:39:22.188Z,99200.34
2023-03-17T19:41:53.322Z,99202.38
2023-03-17T19:44:24.225Z,99203.28
2023-03-17T19:46:51.292Z,99208.22
2023-03-17T19:49:19.858Z,99208.22
2023-03-17T19:51:47.537Z,99201.56
2023-03-17T19:54:14.836Z,99196.72
2023-03-17T19:56:43.309Z,99194.69
2023-03-17T19:59:10.756Z,99184.25
2023-03-17T20:01:38.378Z,99179.97
2023-03-17T20:04:09.406Z,99180.13
2023-03-17T20:06:36.689Z,99183.50
2023-03-17T20:09:04.336Z,99186.75
2023-03-17T20:11:35.926Z,99184.75
2023-03-17T20:14:03.271Z,99186.66
2023-03-17T20:16:33.768Z,99179.78
2023-03-17T20:19:02.421Z,99182.56
2023-03-17T20:21:29.752Z,99182.25
2023-03-17T20:23:56.943Z,99186.41
2023-03-17T20:26:26.928Z,99179.56
2023-03-17T20:28:54.029Z,99185.56
2023-03-17T20:31:22.758Z,99183.97
2023-03-17T20:33:50.506Z,99179.13
2023-03-17T20:36:17.507Z,99173.31
2023-03-17T20:38:44.513Z,99176.97
2023-03-17T20:41:14.738Z,99174.38
2023-03-17T20:43:42.059Z,99175.81
2023-03-17T20:46:15.198Z,99172.44
2023-03-17T20:48:44.223Z,99173.97
2023-03-17T20:51:16.311Z,99163.59
2023-03-17T20:53:46.298Z,99173.47
2023-03-17T20:56:15.668Z,99163.03
2023-03-17T20:58:43.541Z,99161.56
2023-03-17T21:01:12.854Z,99166.81
2023-03-17T21:03:41.110Z,99166.75
2023-03-17T21:06:08.823Z,99166.75
2023-03-17T21:08:37.741Z,99154.72
2023-03-17T21:11:06.837Z,99160.06
2023-03-17T21:13:34.599Z,99155.63
2023-03-17T21:16:02.515Z,99158.22
2023-03-17T21:18:29.751Z,99154.53
2023-03-17T21:20:56.940Z,99152.47
2023-03-17T21:23:24.510Z,99153.38
2023-03-17T21:25:56.052Z,99148.94
2023-03-17T21:28:23.362Z,99151.78
2023-03-17T21:30:51.299Z,99151.53
2023-03-17T21:33:18.468Z,99168.94
2023-03-17T21:35:45.672Z,99150.16
2023-03-17T21:38:13.144Z,99150.75
2023-03-17T21:40:40.545Z,99154.59
2023-03-17T21:43:07.992Z,99150.59
2023-03-17T21:45:35.599Z,99146.91
2023-03-17T21:48:02.926Z,99151.34
2023-03-17T21:50:31.504Z,99154.37
2023-03-17T21:52:59.370Z,99153.69
2023-03-17T21:55:27.206Z,99157.38
2023-03-17T21:57:54.312Z,99154.53
2023-03-17T22:00:23.584Z,99158.12
2023-03-17T22:02:52.695Z,99153.09
2023-03-17T22:05:20.741Z,99162.87
2023-03-17T22:07:48.366Z,99158.62
2023-03-17T22:10:15.872Z,99158.16
2023-03-17T22:12:43.165Z,99165.03
2023-03-17T22:15:10.711Z,99155.13
2023-03-17T22:17:39.694Z,99164.78
2023-03-17T22:20:07.935Z,99156.94
2023-03-17T22:22:35.844Z,99158.28
2023-03-17T22:25:06.172Z,99161.38
2023-03-17T22:27:33.647Z,99157.84
2023-03-17T22:30:00.947Z,99149.81
2023-03-17T22:32:28.420Z,99153.41
2023-03-17T22:34:56.719Z,99147.72
2023-03-17T22:37:24.732Z,99145.22
2023-03-17T22:39:52.281Z,99144.41
2023-03-17T22:42:19.366Z,99142.13
2023-03-17T22:44:46.579Z,99148.63
2023-03-17T22:47:15.960Z,99142.22
2023-03-17T22:49:45.108Z,99134.59
2023-03-17T22:52:12.213Z,99139.34
2023-03-17T22:54:40.806Z,99137.50
2023-03-17T22:57:07.919Z,99133.00
2023-03-17T22:59:35.003Z,99138.03
2023-03-17T23:02:02.654Z,99134.94
2023-03-17T23:04:30.087Z,99131.69
2023-03-17T23:06:58.977Z,99131.69
2023-03-17T23:09:26.606Z,99128.16
2023-03-17T23:11:53.682Z,99128.16
2023-03-17T23:14:20.771Z,99131.38
2023-03-17T23:16:48.713Z,99121.72
2023-03-17T23:19:16.655Z,99126.97
2023-03-17T23:21:43.900Z,99127.84
2023-03-17T23:24:11.719Z,99124.56
2023-03-17T23:26:38.838Z,99128.41
2023-03-17T23:29:08.362Z,99126.81
2023-03-17T23:31:37.064Z,99134.66
2023-03-17T23:34:06.616Z,99134.00
2023-03-17T23:36:35.099Z,99119.19
2023-03-17T23:39:02.491Z,99112.19
2023-03-17T23:41:29.540Z,99106.44
2023-03-17T23:43:56.920Z,99111.06
2023-03-17T23:46:25.783Z,99118.09
2023-03-17T23:48:53.086Z,99125.75
2023-03-17T23:51:20.140Z,99122.50
2023-03-17T23:53:48.075Z,99121.81
2023-03-17T23:56:15.445Z,99121.53
2023-03-17T23:58:43.473Z,99124.37
